VLG4TN GCXO-LEMG
Flight info
| Callsign | VLG4TN |
|---|---|
| Flight time | 1h 58m |
| Altitude | 36000 |
| Route | KORAL UG5 SONSO DCT ADUBI N871 VJF |
| Aircraft | A320/M-SDFGHILORVWXY/LB1 |
Departure
| Time | 2026-04-17 19:56 |
|---|---|
| Airport | Tenerife Norte-Ciudad de La Laguna Airport (GCXO) |
Arrival
| Time | 2026-04-17 21:54 |
|---|---|
| Airport | Málaga-Costa del Sol Airport (LEMG) |
| Time | Latitude | Longitude | Altitude | Speed | Heading |
|---|---|---|---|---|---|
| 2026-04-17 19:27 | 28.48632 | -16.34470 | 2067 ft | 0 kts | 345° |
| 2026-04-17 19:46 | 28.48618 | -16.34466 | 2067 ft | 3 kts | 349° |
| 2026-04-17 19:46 | 28.48598 | -16.34463 | 2067 ft | 3 kts | 358° |
| 2026-04-17 19:46 | 28.48578 | -16.34463 | 2067 ft | 3 kts | 6° |
| 2026-04-17 19:47 | 28.48558 | -16.34466 | 2067 ft | 3 kts | 15° |
| 2026-04-17 19:47 | 28.48538 | -16.34473 | 2067 ft | 3 kts | 21° |
| 2026-04-17 19:47 | 28.48520 | -16.34482 | 2067 ft | 3 kts | 19° |
| 2026-04-17 19:47 | 28.48502 | -16.34487 | 2067 ft | 3 kts | 348° |
| 2026-04-17 19:48 | 28.48488 | -16.34479 | 2066 ft | 3 kts | 289° |
| 2026-04-17 19:48 | 28.48483 | -16.34458 | 2066 ft | 2 kts | 289° |
| 2026-04-17 19:48 | 28.48481 | -16.34453 | 2066 ft | 0 kts | 291° |
| 2026-04-17 19:51 | 28.48482 | -16.34454 | 2066 ft | 0 kts | 291° |
| 2026-04-17 19:51 | 28.48485 | -16.34463 | 2066 ft | 2 kts | 292° |
| 2026-04-17 19:52 | 28.48500 | -16.34504 | 2067 ft | 8 kts | 290° |
| 2026-04-17 19:52 | 28.48523 | -16.34574 | 2068 ft | 11 kts | 290° |
| 2026-04-17 19:52 | 28.48551 | -16.34659 | 2069 ft | 12 kts | 290° |
| 2026-04-17 19:52 | 28.48583 | -16.34758 | 2070 ft | 15 kts | 290° |
| 2026-04-17 19:53 | 28.48622 | -16.34882 | 2071 ft | 18 kts | 290° |
| 2026-04-17 19:53 | 28.48674 | -16.35033 | 2071 ft | 22 kts | 290° |
| 2026-04-17 19:53 | 28.48731 | -16.35201 | 2071 ft | 24 kts | 291° |
| 2026-04-17 19:53 | 28.48792 | -16.35385 | 2071 ft | 26 kts | 290° |
| 2026-04-17 19:54 | 28.48861 | -16.35591 | 2069 ft | 30 kts | 291° |
| 2026-04-17 19:54 | 28.48835 | -16.35745 | 2068 ft | 18 kts | 210° |
| 2026-04-17 19:54 | 28.48788 | -16.35716 | 2068 ft | 0 kts | 111° |
| 2026-04-17 19:54 | 28.48788 | -16.35715 | 2068 ft | 0 kts | 111° |
| 2026-04-17 19:55 | 28.48763 | -16.35644 | 2069 ft | 35 kts | 111° |
| 2026-04-17 19:55 | 28.48596 | -16.35140 | 2071 ft | 98 kts | 111° |
| 2026-04-17 19:55 | 28.48296 | -16.34239 | 2061 ft | 145 kts | 111° |
| 2026-04-17 19:55 | 28.47885 | -16.33048 | 2251 ft | 168 kts | 112° |
| 2026-04-17 19:56 | 28.47440 | -16.31816 | 2910 ft | 171 kts | 114° |
| 2026-04-17 19:56 | 28.46954 | -16.30539 | 3359 ft | 182 kts | 116° |
| 2026-04-17 19:56 | 28.46433 | -16.29183 | 3794 ft | 192 kts | 117° |
| 2026-04-17 19:56 | 28.45849 | -16.27751 | 4141 ft | 208 kts | 118° |
| 2026-04-17 19:57 | 28.45188 | -16.26184 | 4385 ft | 233 kts | 118° |
| 2026-04-17 19:57 | 28.44436 | -16.24439 | 4795 ft | 255 kts | 118° |
| 2026-04-17 19:57 | 28.43632 | -16.22580 | 5372 ft | 269 kts | 119° |
| 2026-04-17 19:57 | 28.42806 | -16.20645 | 6199 ft | 271 kts | 118° |
| 2026-04-17 19:58 | 28.42008 | -16.18720 | 7147 ft | 269 kts | 118° |
| 2026-04-17 19:58 | 28.41238 | -16.16769 | 7941 ft | 274 kts | 111° |
| 2026-04-17 19:58 | 28.40986 | -16.14598 | 8700 ft | 285 kts | 87° |
| 2026-04-17 19:58 | 28.41554 | -16.12418 | 9487 ft | 293 kts | 69° |
| 2026-04-17 19:59 | 28.42381 | -16.10286 | 10265 ft | 297 kts | 69° |
| 2026-04-17 19:59 | 28.43255 | -16.08066 | 10550 ft | 319 kts | 68° |
| 2026-04-17 19:59 | 28.44190 | -16.05689 | 10850 ft | 337 kts | 68° |
| 2026-04-17 19:59 | 28.45156 | -16.03228 | 11441 ft | 343 kts | 68° |
| 2026-04-17 20:00 | 28.46132 | -16.00736 | 12116 ft | 347 kts | 68° |
| 2026-04-17 20:00 | 28.47117 | -15.98211 | 12798 ft | 351 kts | 68° |
| 2026-04-17 20:00 | 28.48110 | -15.95658 | 13478 ft | 355 kts | 68° |
| 2026-04-17 20:00 | 28.49108 | -15.93080 | 14098 ft | 358 kts | 68° |
| 2026-04-17 20:01 | 28.50113 | -15.90470 | 14658 ft | 362 kts | 68° |
| 2026-04-17 20:01 | 28.51126 | -15.87837 | 15233 ft | 366 kts | 68° |
| 2026-04-17 20:01 | 28.52154 | -15.85173 | 15790 ft | 370 kts | 68° |
| 2026-04-17 20:01 | 28.53195 | -15.82480 | 16366 ft | 373 kts | 68° |
| 2026-04-17 20:02 | 28.54244 | -15.79768 | 16926 ft | 377 kts | 68° |
| 2026-04-17 20:02 | 28.55304 | -15.77024 | 17493 ft | 381 kts | 68° |
| 2026-04-17 20:02 | 28.56373 | -15.74257 | 18069 ft | 384 kts | 68° |
| 2026-04-17 20:02 | 28.57449 | -15.71461 | 18596 ft | 388 kts | 68° |
| 2026-04-17 20:03 | 28.58532 | -15.68639 | 19083 ft | 391 kts | 68° |
| 2026-04-17 20:03 | 28.59627 | -15.65788 | 19579 ft | 395 kts | 68° |
| 2026-04-17 20:03 | 28.60745 | -15.62871 | 20088 ft | 399 kts | 67° |
| 2026-04-17 20:03 | 28.61845 | -15.60003 | 20570 ft | 402 kts | 67° |
| 2026-04-17 20:04 | 28.62986 | -15.57033 | 21046 ft | 406 kts | 67° |
| 2026-04-17 20:04 | 28.64123 | -15.54076 | 21505 ft | 410 kts | 67° |
| 2026-04-17 20:04 | 28.65267 | -15.51092 | 21966 ft | 413 kts | 67° |
| 2026-04-17 20:04 | 28.66418 | -15.48084 | 22420 ft | 416 kts | 67° |
| 2026-04-17 20:05 | 28.67578 | -15.45052 | 22859 ft | 420 kts | 67° |
| 2026-04-17 20:05 | 28.68745 | -15.41992 | 23317 ft | 423 kts | 67° |
| 2026-04-17 20:05 | 28.69921 | -15.38908 | 23733 ft | 426 kts | 67° |
| 2026-04-17 20:05 | 28.71104 | -15.35798 | 24103 ft | 429 kts | 67° |
| 2026-04-17 20:06 | 28.72290 | -15.32669 | 24478 ft | 432 kts | 67° |
| 2026-04-17 20:06 | 28.73486 | -15.29515 | 24844 ft | 435 kts | 67° |
| 2026-04-17 20:06 | 28.74691 | -15.26345 | 25221 ft | 437 kts | 67° |
| 2026-04-17 20:06 | 28.75905 | -15.23157 | 25593 ft | 440 kts | 66° |
| 2026-04-17 20:07 | 28.77124 | -15.19949 | 25960 ft | 443 kts | 66° |
| 2026-04-17 20:07 | 28.78350 | -15.16719 | 26335 ft | 445 kts | 66° |
| 2026-04-17 20:07 | 28.79581 | -15.13472 | 26693 ft | 448 kts | 66° |
| 2026-04-17 20:07 | 28.80820 | -15.10199 | 27043 ft | 450 kts | 66° |
| 2026-04-17 20:08 | 28.82065 | -15.06911 | 27388 ft | 453 kts | 66° |
| 2026-04-17 20:08 | 28.83318 | -15.03602 | 27734 ft | 456 kts | 66° |
| 2026-04-17 20:08 | 28.84579 | -15.00270 | 28072 ft | 459 kts | 66° |
| 2026-04-17 20:08 | 28.85845 | -14.96920 | 28418 ft | 462 kts | 66° |
| 2026-04-17 20:09 | 28.87119 | -14.93542 | 28761 ft | 465 kts | 66° |
| 2026-04-17 20:09 | 28.88399 | -14.90144 | 29092 ft | 468 kts | 66° |
| 2026-04-17 20:09 | 28.89688 | -14.86725 | 29442 ft | 470 kts | 66° |
| 2026-04-17 20:09 | 28.90981 | -14.83283 | 29788 ft | 473 kts | 66° |
| 2026-04-17 20:10 | 28.92282 | -14.79820 | 30114 ft | 476 kts | 66° |
| 2026-04-17 20:10 | 28.93589 | -14.76338 | 30407 ft | 478 kts | 66° |
| 2026-04-17 20:10 | 28.94898 | -14.72849 | 30803 ft | 478 kts | 66° |
| 2026-04-17 20:10 | 28.96205 | -14.69363 | 31204 ft | 477 kts | 66° |
| 2026-04-17 20:11 | 28.97509 | -14.65879 | 31596 ft | 477 kts | 66° |
| 2026-04-17 20:11 | 28.98808 | -14.62397 | 31989 ft | 477 kts | 67° |
| 2026-04-17 20:11 | 29.00106 | -14.58914 | 32387 ft | 477 kts | 67° |
| 2026-04-17 20:11 | 29.01403 | -14.55428 | 32788 ft | 476 kts | 67° |
| 2026-04-17 20:12 | 29.02699 | -14.51945 | 33188 ft | 476 kts | 67° |
| 2026-04-17 20:12 | 29.03995 | -14.48466 | 33596 ft | 476 kts | 67° |
| 2026-04-17 20:12 | 29.05291 | -14.44989 | 34004 ft | 476 kts | 67° |
| 2026-04-17 20:12 | 29.06587 | -14.41509 | 34362 ft | 475 kts | 67° |
| 2026-04-17 20:13 | 29.07880 | -14.38036 | 34704 ft | 475 kts | 68° |
| 2026-04-17 20:13 | 29.09170 | -14.34569 | 35050 ft | 474 kts | 67° |
| 2026-04-17 20:13 | 29.10456 | -14.31107 | 35385 ft | 473 kts | 68° |
| 2026-04-17 20:13 | 29.11739 | -14.27645 | 35711 ft | 472 kts | 68° |
| 2026-04-17 20:14 | 29.13016 | -14.24184 | 35854 ft | 472 kts | 68° |
| 2026-04-17 20:14 | 29.14293 | -14.20723 | 36005 ft | 472 kts | 68° |
| 2026-04-17 20:14 | 29.15574 | -14.17250 | 36047 ft | 475 kts | 68° |
| 2026-04-17 20:15 | 29.18146 | -14.10274 | 36047 ft | 476 kts | 68° |
| 2026-04-17 20:15 | 29.20719 | -14.03289 | 36049 ft | 476 kts | 68° |
| 2026-04-17 20:16 | 29.23287 | -13.96306 | 36047 ft | 476 kts | 68° |
| 2026-04-17 20:16 | 29.25847 | -13.89322 | 36049 ft | 476 kts | 68° |
| 2026-04-17 20:17 | 29.28404 | -13.82328 | 36056 ft | 476 kts | 68° |
| 2026-04-17 20:17 | 29.30960 | -13.75332 | 36056 ft | 476 kts | 68° |
| 2026-04-17 20:18 | 29.33518 | -13.68327 | 36063 ft | 476 kts | 68° |
| 2026-04-17 20:18 | 29.36068 | -13.61322 | 36068 ft | 476 kts | 68° |
| 2026-04-17 20:19 | 29.38617 | -13.54311 | 36070 ft | 476 kts | 68° |
| 2026-04-17 20:19 | 29.41158 | -13.47300 | 36070 ft | 476 kts | 68° |
| 2026-04-17 20:20 | 29.43692 | -13.40285 | 36073 ft | 476 kts | 68° |
| 2026-04-17 20:20 | 29.46229 | -13.33266 | 36072 ft | 476 kts | 68° |
| 2026-04-17 20:21 | 29.48760 | -13.26253 | 36069 ft | 476 kts | 68° |
| 2026-04-17 20:21 | 29.51278 | -13.19231 | 36071 ft | 476 kts | 68° |
| 2026-04-17 20:22 | 29.53797 | -13.12198 | 36073 ft | 476 kts | 68° |
| 2026-04-17 20:22 | 29.56318 | -13.05171 | 36073 ft | 476 kts | 68° |
| 2026-04-17 20:23 | 29.58855 | -12.98098 | 36070 ft | 476 kts | 68° |
| 2026-04-17 20:23 | 29.61349 | -12.91106 | 36070 ft | 476 kts | 68° |
| 2026-04-17 20:24 | 29.63852 | -12.84065 | 36073 ft | 476 kts | 68° |
| 2026-04-17 20:24 | 29.66375 | -12.76975 | 36073 ft | 476 kts | 68° |
| 2026-04-17 20:25 | 29.68858 | -12.69974 | 36073 ft | 476 kts | 68° |
| 2026-04-17 20:25 | 29.71346 | -12.62927 | 36070 ft | 476 kts | 68° |
| 2026-04-17 20:26 | 29.73631 | -12.57129 | 36070 ft | 475 kts | 59° |
| 2026-04-17 20:26 | 29.77299 | -12.50816 | 36067 ft | 474 kts | 54° |
| 2026-04-17 20:27 | 29.81026 | -12.44544 | 36070 ft | 475 kts | 55° |
| 2026-04-17 20:27 | 29.84737 | -12.38263 | 36066 ft | 475 kts | 55° |
| 2026-04-17 20:28 | 29.88443 | -12.31967 | 36068 ft | 475 kts | 55° |
| 2026-04-17 20:28 | 29.92143 | -12.25668 | 36069 ft | 475 kts | 55° |
| 2026-04-17 20:29 | 29.95843 | -12.19364 | 36071 ft | 475 kts | 55° |
| 2026-04-17 20:29 | 29.99546 | -12.13053 | 36077 ft | 474 kts | 53° |
| 2026-04-17 20:30 | 30.06647 | -12.05264 | 36077 ft | 470 kts | 36° |
| 2026-04-17 20:30 | 30.11781 | -12.00582 | 36077 ft | 470 kts | 36° |
| 2026-04-17 20:31 | 30.16913 | -11.95890 | 36077 ft | 470 kts | 36° |
| 2026-04-17 20:31 | 30.22045 | -11.91194 | 36079 ft | 470 kts | 36° |
| 2026-04-17 20:32 | 30.27170 | -11.86492 | 36079 ft | 470 kts | 36° |
| 2026-04-17 20:32 | 30.32290 | -11.81782 | 36080 ft | 470 kts | 36° |
| 2026-04-17 20:33 | 30.37414 | -11.77071 | 36078 ft | 470 kts | 36° |
| 2026-04-17 20:33 | 30.42536 | -11.72357 | 36075 ft | 471 kts | 36° |
| 2026-04-17 20:34 | 30.47662 | -11.67633 | 36076 ft | 471 kts | 36° |
| 2026-04-17 20:34 | 30.52791 | -11.62906 | 36078 ft | 471 kts | 36° |
| 2026-04-17 20:35 | 30.57918 | -11.58168 | 36081 ft | 471 kts | 36° |
| 2026-04-17 20:35 | 30.63042 | -11.53428 | 36078 ft | 471 kts | 36° |
| 2026-04-17 20:36 | 30.68157 | -11.48674 | 36078 ft | 471 kts | 36° |
| 2026-04-17 20:36 | 30.73279 | -11.43922 | 36076 ft | 471 kts | 36° |
| 2026-04-17 20:37 | 30.78410 | -11.39166 | 36082 ft | 472 kts | 36° |
| 2026-04-17 20:37 | 30.83570 | -11.34369 | 36082 ft | 472 kts | 36° |
| 2026-04-17 20:38 | 30.88664 | -11.29617 | 36088 ft | 472 kts | 36° |
| 2026-04-17 20:38 | 30.93822 | -11.24808 | 36089 ft | 472 kts | 36° |
| 2026-04-17 20:39 | 30.98941 | -11.20021 | 36094 ft | 472 kts | 36° |
| 2026-04-17 20:39 | 31.04049 | -11.15234 | 36092 ft | 471 kts | 36° |
| 2026-04-17 20:40 | 31.09161 | -11.10445 | 36095 ft | 471 kts | 36° |
| 2026-04-17 20:40 | 31.14268 | -11.05658 | 36093 ft | 471 kts | 36° |
| 2026-04-17 20:41 | 31.19371 | -11.00868 | 36097 ft | 471 kts | 36° |
| 2026-04-17 20:41 | 31.24466 | -10.96058 | 36097 ft | 471 kts | 36° |
| 2026-04-17 20:42 | 31.29558 | -10.91248 | 36099 ft | 471 kts | 36° |
| 2026-04-17 20:42 | 31.34653 | -10.86439 | 36102 ft | 470 kts | 36° |
| 2026-04-17 20:43 | 31.39746 | -10.81633 | 36102 ft | 470 kts | 36° |
| 2026-04-17 20:43 | 31.44833 | -10.76824 | 36104 ft | 470 kts | 36° |
| 2026-04-17 20:44 | 31.49915 | -10.72007 | 36107 ft | 470 kts | 36° |
| 2026-04-17 20:44 | 31.54994 | -10.67186 | 36103 ft | 470 kts | 36° |
| 2026-04-17 20:45 | 31.60063 | -10.62359 | 36107 ft | 470 kts | 36° |
| 2026-04-17 20:45 | 31.65138 | -10.57530 | 36108 ft | 469 kts | 36° |
| 2026-04-17 20:46 | 31.70205 | -10.52699 | 36110 ft | 469 kts | 36° |
| 2026-04-17 20:46 | 31.75270 | -10.47858 | 36110 ft | 469 kts | 36° |
| 2026-04-17 20:47 | 31.80339 | -10.43011 | 36112 ft | 469 kts | 36° |
| 2026-04-17 20:47 | 31.85401 | -10.38168 | 36117 ft | 469 kts | 36° |
| 2026-04-17 20:48 | 31.90462 | -10.33314 | 36127 ft | 469 kts | 36° |
| 2026-04-17 20:48 | 31.95516 | -10.28458 | 36123 ft | 469 kts | 36° |
| 2026-04-17 20:49 | 32.00562 | -10.23597 | 36123 ft | 469 kts | 36° |
| 2026-04-17 20:49 | 32.05608 | -10.18736 | 36123 ft | 468 kts | 36° |
| 2026-04-17 20:50 | 32.10656 | -10.13876 | 36122 ft | 468 kts | 36° |
| 2026-04-17 20:50 | 32.15694 | -10.09006 | 36125 ft | 468 kts | 36° |
| 2026-04-17 20:51 | 32.20727 | -10.04132 | 36128 ft | 468 kts | 36° |
| 2026-04-17 20:51 | 32.25758 | -9.99257 | 36129 ft | 467 kts | 36° |
| 2026-04-17 20:52 | 32.30780 | -9.94389 | 36129 ft | 467 kts | 36° |
| 2026-04-17 20:52 | 32.35799 | -9.89514 | 36131 ft | 467 kts | 36° |
| 2026-04-17 20:53 | 32.40811 | -9.84640 | 36129 ft | 466 kts | 36° |
| 2026-04-17 20:53 | 32.45848 | -9.79723 | 36127 ft | 466 kts | 36° |
| 2026-04-17 20:54 | 32.50814 | -9.74869 | 36125 ft | 466 kts | 36° |
| 2026-04-17 20:54 | 32.55810 | -9.69982 | 36125 ft | 466 kts | 36° |
| 2026-04-17 20:55 | 32.60805 | -9.65097 | 36127 ft | 465 kts | 36° |
| 2026-04-17 20:55 | 32.65791 | -9.60209 | 36126 ft | 465 kts | 36° |
| 2026-04-17 20:56 | 32.70767 | -9.55316 | 36130 ft | 465 kts | 36° |
| 2026-04-17 20:56 | 32.75749 | -9.50416 | 36130 ft | 465 kts | 36° |
| 2026-04-17 20:57 | 32.80756 | -9.45487 | 36126 ft | 464 kts | 36° |
| 2026-04-17 20:57 | 32.85720 | -9.40585 | 36125 ft | 464 kts | 36° |
| 2026-04-17 20:58 | 32.90685 | -9.35681 | 36125 ft | 464 kts | 36° |
| 2026-04-17 20:58 | 32.95649 | -9.30766 | 36125 ft | 464 kts | 36° |
| 2026-04-17 20:59 | 33.00607 | -9.25849 | 36127 ft | 464 kts | 36° |
| 2026-04-17 20:59 | 33.05565 | -9.20929 | 36124 ft | 464 kts | 36° |
| 2026-04-17 21:00 | 33.10522 | -9.16011 | 36125 ft | 463 kts | 36° |
| 2026-04-17 21:00 | 33.15476 | -9.11087 | 36128 ft | 463 kts | 36° |
| 2026-04-17 21:01 | 33.20422 | -9.06161 | 36127 ft | 463 kts | 36° |
| 2026-04-17 21:01 | 33.25362 | -9.01221 | 36123 ft | 463 kts | 36° |
| 2026-04-17 21:02 | 33.30297 | -8.96273 | 36122 ft | 463 kts | 36° |
| 2026-04-17 21:02 | 33.35230 | -8.91339 | 36130 ft | 462 kts | 36° |
| 2026-04-17 21:03 | 33.39328 | -8.87230 | 36132 ft | 462 kts | 36° |
| 2026-04-17 21:03 | 33.44246 | -8.82278 | 36125 ft | 462 kts | 36° |
| 2026-04-17 21:04 | 33.49167 | -8.77330 | 36124 ft | 462 kts | 36° |
| 2026-04-17 21:04 | 33.54084 | -8.72379 | 36122 ft | 462 kts | 36° |
| 2026-04-17 21:05 | 33.58997 | -8.67423 | 36120 ft | 461 kts | 36° |
| 2026-04-17 21:05 | 33.63905 | -8.62465 | 36120 ft | 461 kts | 36° |
| 2026-04-17 21:06 | 33.68818 | -8.57502 | 36122 ft | 461 kts | 36° |
| 2026-04-17 21:06 | 33.73749 | -8.52498 | 36117 ft | 461 kts | 37° |
| 2026-04-17 21:07 | 33.78647 | -8.47519 | 36117 ft | 461 kts | 37° |
| 2026-04-17 21:07 | 33.83538 | -8.42545 | 36120 ft | 461 kts | 36° |
| 2026-04-17 21:08 | 33.88431 | -8.37572 | 36119 ft | 460 kts | 37° |
| 2026-04-17 21:08 | 33.93315 | -8.32586 | 36118 ft | 460 kts | 37° |
| 2026-04-17 21:09 | 33.98195 | -8.27595 | 36117 ft | 460 kts | 37° |
| 2026-04-17 21:09 | 34.03070 | -8.22598 | 36112 ft | 460 kts | 37° |
| 2026-04-17 21:10 | 34.07947 | -8.17612 | 36110 ft | 459 kts | 37° |
| 2026-04-17 21:10 | 34.12816 | -8.12618 | 36110 ft | 459 kts | 37° |
| 2026-04-17 21:11 | 34.17676 | -8.07611 | 36106 ft | 459 kts | 37° |
| 2026-04-17 21:11 | 34.22532 | -8.02611 | 36107 ft | 459 kts | 37° |
| 2026-04-17 21:12 | 34.27388 | -7.97605 | 36112 ft | 459 kts | 37° |
| 2026-04-17 21:12 | 34.32239 | -7.92596 | 36110 ft | 458 kts | 37° |
| 2026-04-17 21:13 | 34.37081 | -7.87580 | 36111 ft | 458 kts | 37° |
| 2026-04-17 21:13 | 34.41923 | -7.82568 | 36102 ft | 458 kts | 37° |
| 2026-04-17 21:14 | 34.46760 | -7.77546 | 36103 ft | 458 kts | 37° |
| 2026-04-17 21:14 | 34.51593 | -7.72523 | 36101 ft | 458 kts | 37° |
| 2026-04-17 21:15 | 34.56424 | -7.67493 | 36102 ft | 457 kts | 37° |
| 2026-04-17 21:15 | 34.61247 | -7.62465 | 36103 ft | 457 kts | 37° |
| 2026-04-17 21:16 | 34.66066 | -7.57435 | 36101 ft | 457 kts | 37° |
| 2026-04-17 21:16 | 34.70881 | -7.52394 | 36103 ft | 457 kts | 37° |
| 2026-04-17 21:17 | 34.75691 | -7.47355 | 36102 ft | 456 kts | 37° |
| 2026-04-17 21:17 | 34.80503 | -7.42316 | 36090 ft | 456 kts | 37° |
| 2026-04-17 21:18 | 34.85304 | -7.37262 | 36085 ft | 456 kts | 37° |
| 2026-04-17 21:18 | 34.90101 | -7.32200 | 36086 ft | 456 kts | 37° |
| 2026-04-17 21:19 | 34.94899 | -7.27141 | 36087 ft | 456 kts | 37° |
| 2026-04-17 21:19 | 34.99699 | -7.22087 | 36089 ft | 456 kts | 37° |
| 2026-04-17 21:20 | 35.04494 | -7.17027 | 36086 ft | 456 kts | 38° |
| 2026-04-17 21:20 | 35.09278 | -7.11945 | 36087 ft | 456 kts | 38° |
| 2026-04-17 21:21 | 35.14060 | -7.06857 | 36087 ft | 456 kts | 38° |
| 2026-04-17 21:21 | 35.18842 | -7.01768 | 36084 ft | 456 kts | 38° |
| 2026-04-17 21:22 | 35.23626 | -6.96682 | 36086 ft | 455 kts | 38° |
| 2026-04-17 21:22 | 35.28403 | -6.91589 | 36083 ft | 455 kts | 38° |
| 2026-04-17 21:23 | 35.33173 | -6.86490 | 36078 ft | 455 kts | 38° |
| 2026-04-17 21:23 | 35.37941 | -6.81388 | 36079 ft | 455 kts | 38° |
| 2026-04-17 21:24 | 35.42703 | -6.76288 | 36079 ft | 454 kts | 38° |
| 2026-04-17 21:24 | 35.47461 | -6.71189 | 36075 ft | 454 kts | 39° |
| 2026-04-17 21:25 | 35.52214 | -6.66078 | 36072 ft | 454 kts | 39° |
| 2026-04-17 21:25 | 35.56964 | -6.60960 | 36070 ft | 454 kts | 39° |
| 2026-04-17 21:26 | 35.61708 | -6.55839 | 36070 ft | 454 kts | 39° |
| 2026-04-17 21:26 | 35.66449 | -6.50712 | 36072 ft | 454 kts | 39° |
| 2026-04-17 21:27 | 35.71189 | -6.45573 | 36070 ft | 454 kts | 39° |
| 2026-04-17 21:27 | 35.75928 | -6.40438 | 36074 ft | 454 kts | 39° |
| 2026-04-17 21:28 | 35.80665 | -6.35298 | 36075 ft | 454 kts | 39° |
| 2026-04-17 21:28 | 35.85588 | -6.30464 | 36082 ft | 452 kts | 32° |
| 2026-04-17 21:29 | 35.90760 | -6.26066 | 36089 ft | 452 kts | 32° |
| 2026-04-17 21:29 | 35.95962 | -6.21620 | 36103 ft | 452 kts | 32° |
| 2026-04-17 21:30 | 36.01126 | -6.17189 | 35696 ft | 453 kts | 33° |
| 2026-04-17 21:30 | 36.03714 | -6.14971 | 35185 ft | 451 kts | 32° |
| 2026-04-17 21:30 | 36.06282 | -6.12759 | 34702 ft | 449 kts | 34° |
| 2026-04-17 21:31 | 36.08582 | -6.10149 | 34220 ft | 450 kts | 49° |
| 2026-04-17 21:31 | 36.10506 | -6.07097 | 33673 ft | 449 kts | 51° |
| 2026-04-17 21:31 | 36.12397 | -6.04043 | 33177 ft | 446 kts | 51° |
| 2026-04-17 21:31 | 36.14271 | -6.00998 | 32666 ft | 444 kts | 51° |
| 2026-04-17 21:32 | 36.16130 | -5.97961 | 32146 ft | 441 kts | 51° |
| 2026-04-17 21:32 | 36.17973 | -5.94947 | 31660 ft | 438 kts | 51° |
| 2026-04-17 21:32 | 36.19812 | -5.91947 | 31149 ft | 436 kts | 51° |
| 2026-04-17 21:32 | 36.21642 | -5.88968 | 30650 ft | 433 kts | 51° |
| 2026-04-17 21:33 | 36.23462 | -5.86006 | 30158 ft | 431 kts | 52° |
| 2026-04-17 21:33 | 36.25269 | -5.83060 | 29624 ft | 428 kts | 52° |
| 2026-04-17 21:33 | 36.27055 | -5.80138 | 29163 ft | 423 kts | 52° |
| 2026-04-17 21:33 | 36.28823 | -5.77242 | 28704 ft | 419 kts | 52° |
| 2026-04-17 21:34 | 36.30568 | -5.74383 | 28257 ft | 415 kts | 52° |
| 2026-04-17 21:34 | 36.32303 | -5.71542 | 27811 ft | 411 kts | 52° |
| 2026-04-17 21:34 | 36.35726 | -5.65938 | 26978 ft | 404 kts | 52° |
| 2026-04-17 21:35 | 36.37415 | -5.63164 | 26570 ft | 402 kts | 52° |
| 2026-04-17 21:35 | 36.39092 | -5.60403 | 26164 ft | 399 kts | 53° |
| 2026-04-17 21:35 | 36.40755 | -5.57662 | 25740 ft | 397 kts | 53° |
| 2026-04-17 21:35 | 36.42414 | -5.54930 | 25312 ft | 395 kts | 53° |
| 2026-04-17 21:36 | 36.44064 | -5.52214 | 24883 ft | 393 kts | 53° |
| 2026-04-17 21:36 | 36.45709 | -5.49506 | 24446 ft | 392 kts | 53° |
| 2026-04-17 21:36 | 36.47347 | -5.46804 | 23995 ft | 391 kts | 54° |
| 2026-04-17 21:36 | 36.48728 | -5.43916 | 23512 ft | 389 kts | 67° |
| 2026-04-17 21:37 | 36.49551 | -5.40741 | 23029 ft | 384 kts | 80° |
| 2026-04-17 21:37 | 36.49795 | -5.37425 | 22702 ft | 391 kts | 92° |
| 2026-04-17 21:37 | 36.49656 | -5.33994 | 22016 ft | 410 kts | 90° |
| 2026-04-17 21:37 | 36.50168 | -5.30480 | 21054 ft | 421 kts | 69° |
| 2026-04-17 21:38 | 36.51732 | -5.27385 | 20063 ft | 428 kts | 49° |
| 2026-04-17 21:38 | 36.53740 | -5.24644 | 19249 ft | 429 kts | 47° |
| 2026-04-17 21:38 | 36.55763 | -5.21923 | 18570 ft | 427 kts | 48° |
| 2026-04-17 21:38 | 36.57750 | -5.19196 | 17860 ft | 424 kts | 49° |
| 2026-04-17 21:39 | 36.59686 | -5.16456 | 17191 ft | 420 kts | 49° |
| 2026-04-17 21:39 | 36.61573 | -5.13703 | 16559 ft | 416 kts | 50° |
| 2026-04-17 21:39 | 36.63418 | -5.10957 | 15953 ft | 412 kts | 51° |
| 2026-04-17 21:39 | 36.65236 | -5.08225 | 15347 ft | 408 kts | 51° |
| 2026-04-17 21:40 | 36.67041 | -5.05519 | 14743 ft | 404 kts | 50° |
| 2026-04-17 21:40 | 36.68829 | -5.02851 | 14263 ft | 398 kts | 50° |
| 2026-04-17 21:40 | 36.70573 | -5.00263 | 14126 ft | 381 kts | 50° |
| 2026-04-17 21:40 | 36.71677 | -4.98625 | 14139 ft | 364 kts | 50° |
| 2026-04-17 21:41 | 36.73265 | -4.96272 | 14146 ft | 340 kts | 50° |
| 2026-04-17 21:41 | 36.74733 | -4.94099 | 14149 ft | 325 kts | 50° |
| 2026-04-17 21:41 | 36.76166 | -4.91980 | 14043 ft | 315 kts | 50° |
| 2026-04-17 21:41 | 36.77590 | -4.89870 | 13271 ft | 323 kts | 50° |
| 2026-04-17 21:42 | 36.79136 | -4.87910 | 12903 ft | 311 kts | 33° |
| 2026-04-17 21:42 | 36.81048 | -4.86878 | 12779 ft | 292 kts | 10° |
| 2026-04-17 21:42 | 36.83007 | -4.86847 | 12601 ft | 276 kts | 347° |
| 2026-04-17 21:42 | 36.84817 | -4.87443 | 12468 ft | 265 kts | 343° |
| 2026-04-17 21:43 | 36.86573 | -4.88055 | 12347 ft | 258 kts | 343° |
| 2026-04-17 21:43 | 36.88311 | -4.88664 | 12051 ft | 258 kts | 343° |
| 2026-04-17 21:43 | 36.90072 | -4.89279 | 11573 ft | 265 kts | 343° |
| 2026-04-17 21:43 | 36.91853 | -4.89897 | 11102 ft | 266 kts | 343° |
| 2026-04-17 21:44 | 36.93673 | -4.90352 | 10477 ft | 271 kts | 357° |
| 2026-04-17 21:44 | 36.95571 | -4.90373 | 9892 ft | 274 kts | 359° |
| 2026-04-17 21:44 | 36.97475 | -4.90387 | 9351 ft | 273 kts | 360° |
| 2026-04-17 21:44 | 36.99294 | -4.90089 | 9039 ft | 261 kts | 24° |
| 2026-04-17 21:45 | 37.00704 | -4.88831 | 8913 ft | 245 kts | 55° |
| 2026-04-17 21:45 | 37.01505 | -4.86985 | 8757 ft | 235 kts | 73° |
| 2026-04-17 21:45 | 37.01725 | -4.85014 | 8626 ft | 228 kts | 97° |
| 2026-04-17 21:45 | 37.01264 | -4.83149 | 8455 ft | 225 kts | 123° |
| 2026-04-17 21:46 | 37.00211 | -4.81770 | 8234 ft | 223 kts | 148° |
| 2026-04-17 21:46 | 36.98769 | -4.81093 | 7993 ft | 223 kts | 170° |
| 2026-04-17 21:46 | 36.97213 | -4.80777 | 7740 ft | 223 kts | 169° |
| 2026-04-17 21:46 | 36.95680 | -4.80463 | 7495 ft | 223 kts | 169° |
| 2026-04-17 21:47 | 36.94173 | -4.80150 | 7252 ft | 222 kts | 169° |
| 2026-04-17 21:47 | 36.92655 | -4.79716 | 6997 ft | 220 kts | 159° |
| 2026-04-17 21:47 | 36.91213 | -4.79079 | 6700 ft | 220 kts | 159° |
| 2026-04-17 21:47 | 36.89807 | -4.78466 | 6386 ft | 214 kts | 159° |
| 2026-04-17 21:48 | 36.88423 | -4.77866 | 6129 ft | 206 kts | 159° |
| 2026-04-17 21:48 | 36.87124 | -4.77196 | 5800 ft | 200 kts | 146° |
| 2026-04-17 21:48 | 36.86102 | -4.76081 | 5515 ft | 192 kts | 131° |
| 2026-04-17 21:48 | 36.85226 | -4.74846 | 5249 ft | 189 kts | 131° |
| 2026-04-17 21:49 | 36.84354 | -4.73614 | 4989 ft | 190 kts | 131° |
| 2026-04-17 21:49 | 36.83479 | -4.72380 | 4713 ft | 190 kts | 132° |
| 2026-04-17 21:49 | 36.82602 | -4.71144 | 4455 ft | 190 kts | 131° |
| 2026-04-17 21:49 | 36.81729 | -4.69913 | 4190 ft | 188 kts | 131° |
| 2026-04-17 21:50 | 36.80876 | -4.68712 | 3928 ft | 183 kts | 131° |
| 2026-04-17 21:50 | 36.80031 | -4.67522 | 3681 ft | 183 kts | 131° |
| 2026-04-17 21:50 | 36.79186 | -4.66333 | 3424 ft | 183 kts | 131° |
| 2026-04-17 21:50 | 36.78339 | -4.65140 | 3173 ft | 183 kts | 131° |
| 2026-04-17 21:51 | 36.77498 | -4.63957 | 2911 ft | 181 kts | 131° |
| 2026-04-17 21:51 | 36.76664 | -4.62784 | 2669 ft | 180 kts | 131° |
| 2026-04-17 21:51 | 36.75831 | -4.61614 | 2412 ft | 180 kts | 131° |
| 2026-04-17 21:51 | 36.75006 | -4.60455 | 2166 ft | 176 kts | 131° |
| 2026-04-17 21:52 | 36.74204 | -4.59328 | 1920 ft | 170 kts | 131° |
| 2026-04-17 21:52 | 36.73440 | -4.58256 | 1679 ft | 161 kts | 131° |
| 2026-04-17 21:52 | 36.72725 | -4.57252 | 1484 ft | 148 kts | 131° |
| 2026-04-17 21:52 | 36.72058 | -4.56315 | 1263 ft | 142 kts | 131° |
| 2026-04-17 21:53 | 36.71406 | -4.55400 | 1060 ft | 141 kts | 131° |
| 2026-04-17 21:53 | 36.70757 | -4.54491 | 853 ft | 140 kts | 131° |
| 2026-04-17 21:53 | 36.70107 | -4.53583 | 647 ft | 140 kts | 131° |
| 2026-04-17 21:53 | 36.69441 | -4.52698 | 426 ft | 140 kts | 133° |
| 2026-04-17 21:54 | 36.68809 | -4.51780 | 240 ft | 139 kts | 128° |
| 2026-04-17 21:54 | 36.68176 | -4.50873 | 61 ft | 134 kts | 130° |
| 2026-04-17 21:54 | 36.67642 | -4.50122 | 54 ft | 92 kts | 131° |
| 2026-04-17 21:54 | 36.67343 | -4.49676 | 48 ft | 46 kts | 118° |
| 2026-04-17 21:55 | 36.67288 | -4.49463 | 44 ft | 16 kts | 96° |
| 2026-04-17 21:55 | 36.67319 | -4.49403 | 43 ft | 0 kts | 28° |
| 2026-04-17 21:55 | 36.67319 | -4.49397 | 43 ft | 1 kts | 76° |
| 2026-04-17 21:56 | 36.67290 | -4.49351 | 42 ft | 12 kts | 138° |
| 2026-04-17 21:56 | 36.67275 | -4.49265 | 42 ft | 11 kts | 44° |
| 2026-04-17 21:56 | 36.67339 | -4.49235 | 40 ft | 1 kts | 25° |
| 2026-04-17 21:56 | 36.67355 | -4.49224 | 41 ft | 3 kts | 40° |
| 2026-04-17 21:57 | 36.67381 | -4.49196 | 42 ft | 6 kts | 41° |
| 2026-04-17 21:57 | 36.67422 | -4.49186 | 42 ft | 8 kts | 336° |
| 2026-04-17 21:57 | 36.67453 | -4.49206 | 42 ft | 1 kts | 330° |
| 2026-04-17 21:57 | 36.67457 | -4.49208 | 42 ft | 0 kts | 330° |